Welcome!

Visit our other weather sites:

Template documentation
and downloads

And another site



There are no active watches, warnings or advisories

Nearby METAR Reports

   
KAVP - Albrightsville, PA
Updated: Oct 17 2021 3:54 am
Clear  
Clear  
   Wind: SSW 4.6 mph
Wind: SSW 4.6 mph
Temperature: 48.2°F
Wind Chill: 46.4°F
Dew Point: 44.6°F
Humidity: 87%
Barometer: 29.82 inHg
Clouds: Clear
Visibility: 10 mi
Cloud details: Clear
KAVP 170854Z 20004KT 10SM CLR 09/07 A2982 RMK AO2 SLP095 T00890072 55004
KIWA - Apache Junction, AZ
Updated: Oct 17 2021 3:55 am
Clear  
Clear  
   Wind: SSE 8.1 mph
Wind: SSE 8.1 mph
Temperature: 66.2°F
Dew Point: 33.8°F
Humidity: 30%
Barometer: 29.98 inHg
Clouds: Clear
Visibility: 10 mi
Cloud details: Clear
KIWA 170855Z AUTO 16007KT 10SM CLR 19/01 A2998 RMK AO2 T01930013
KPKB - Blue Rock, OH
Updated: Oct 17 2021 3:53 am
Mostly Cloudy  
Mostly Cloudy  
   Wind: West 6.9 mph
Wind: West 6.9 mph
Temperature: 48.2°F
Wind Chill: 44.6°F
Dew Point: 39.2°F
Humidity: 71%
Barometer: 30.07 inHg
Clouds: Mostly Cloudy
Visibility: 10 mi
Cloud details: Mostly Cloudy 2438 m
KPKB 170853Z AUTO 27006KT 10SM BKN080 09/04 A3007 RMK AO2 SLP180 T00940044 55003 $
KHVN - Branford, CT
Updated: Oct 17 2021 3:53 am
Overcast  
Overcast  
   Wind: NW 8.1 mph
Wind: NW 8.1 mph
Temperature: 57.2°F
Dew Point: 53.6°F
Humidity: 88%
Barometer: 29.72 inHg
Clouds: Overcast
Visibility: 10 mi
Cloud details: Overcast 1829 m
KHVN 170853Z AUTO 31007KT 10SM OVC060 14/12 A2972 RMK AO2 SLP065 T01440122 53001 $
KPHX - Carefree, AZ
Updated: Oct 17 2021 3:51 am
Clear  
Clear  
   Wind: ESE 4.6 mph
Wind: ESE 4.6 mph
Temperature: 73.4°F
Dew Point: 35.6°F
Humidity: 25%
Barometer: 29.94 inHg
Clouds: Clear
Visibility: 10 mi
Cloud details: Clear
KPHX 170851Z 11004KT 10SM CLR 23/02 A2994 RMK AO2 SLP123 T02280022 55001
 

Script developed by  Saratoga-weather.org Adapted for the template by  Weerstation Leuven